sensor_id;sensor_type;location;lat;lon;timestamp;P1;durP1;ratioP1;P2;durP2;ratioP2
71610;SDS011;59459;51.172;6.682;2024-01-11T00:01:33;29.83;;;11.27;;
71610;SDS011;59459;51.172;6.682;2024-01-11T00:04:01;24.97;;;11.30;;
71610;SDS011;59459;51.172;6.682;2024-01-11T00:06:26;33.45;;;11.43;;
71610;SDS011;59459;51.172;6.682;2024-01-11T00:08:51;29.80;;;10.73;;
71610;SDS011;59459;51.172;6.682;2024-01-11T00:11:17;28.60;;;11.60;;
71610;SDS011;59459;51.172;6.682;2024-01-11T00:13:42;28.20;;;10.87;;
71610;SDS011;59459;51.172;6.682;2024-01-11T00:16:07;30.17;;;11.73;;
71610;SDS011;59459;51.172;6.682;2024-01-11T00:18:32;32.50;;;12.23;;
71610;SDS011;59459;51.172;6.682;2024-01-11T00:20:58;29.47;;;11.13;;
71610;SDS011;59459;51.172;6.682;2024-01-11T00:23:23;31.07;;;11.27;;
71610;SDS011;59459;51.172;6.682;2024-01-11T00:25:48;25.33;;;10.27;;
71610;SDS011;59459;51.172;6.682;2024-01-11T00:28:13;27.07;;;11.70;;
71610;SDS011;59459;51.172;6.682;2024-01-11T00:30:39;33.57;;;11.67;;
71610;SDS011;59459;51.172;6.682;2024-01-11T00:33:04;30.57;;;11.53;;
71610;SDS011;59459;51.172;6.682;2024-01-11T00:35:29;32.40;;;11.57;;
71610;SDS011;59459;51.172;6.682;2024-01-11T00:37:54;32.13;;;11.70;;
71610;SDS011;59459;51.172;6.682;2024-01-11T00:40:20;35.33;;;10.87;;
71610;SDS011;59459;51.172;6.682;2024-01-11T00:42:45;28.07;;;12.33;;
71610;SDS011;59459;51.172;6.682;2024-01-11T00:45:10;29.27;;;10.73;;
71610;SDS011;59459;51.172;6.682;2024-01-11T00:47:36;28.25;;;11.88;;
71610;SDS011;59459;51.172;6.682;2024-01-11T00:50:01;32.77;;;10.73;;
71610;SDS011;59459;51.172;6.682;2024-01-11T00:52:26;23.70;;;10.13;;
71610;SDS011;59459;51.172;6.682;2024-01-11T00:54:51;28.27;;;10.20;;
71610;SDS011;59459;51.172;6.682;2024-01-11T00:57:16;34.17;;;11.70;;
71610;SDS011;59459;51.172;6.682;2024-01-11T00:59:42;28.10;;;11.40;;
71610;SDS011;59459;51.172;6.682;2024-01-11T01:02:07;26.07;;;11.70;;
71610;SDS011;59459;51.172;6.682;2024-01-11T01:04:32;26.87;;;10.97;;
71610;SDS011;59459;51.172;6.682;2024-01-11T01:06:57;32.10;;;10.23;;
71610;SDS011;59459;51.172;6.682;2024-01-11T01:09:23;26.80;;;10.23;;
71610;SDS011;59459;51.172;6.682;2024-01-11T01:11:48;23.83;;;9.83;;
71610;SDS011;59459;51.172;6.682;2024-01-11T01:14:13;20.63;;;9.37;;
71610;SDS011;59459;51.172;6.682;2024-01-11T01:16:38;25.47;;;9.10;;
71610;SDS011;59459;51.172;6.682;2024-01-11T01:19:03;29.33;;;10.40;;
71610;SDS011;59459;51.172;6.682;2024-01-11T01:21:29;28.07;;;11.07;;
71610;SDS011;59459;51.172;6.682;2024-01-11T01:23:54;26.10;;;9.73;;
71610;SDS011;59459;51.172;6.682;2024-01-11T01:26:19;27.27;;;10.53;;
71610;SDS011;59459;51.172;6.682;2024-01-11T01:28:45;23.05;;;10.23;;
71610;SDS011;59459;51.172;6.682;2024-01-11T01:31:10;25.10;;;9.00;;
71610;SDS011;59459;51.172;6.682;2024-01-11T01:33:35;39.13;;;11.57;;
71610;SDS011;59459;51.172;6.682;2024-01-11T01:36:00;23.53;;;11.00;;
71610;SDS011;59459;51.172;6.682;2024-01-11T01:38:26;27.33;;;10.43;;
71610;SDS011;59459;51.172;6.682;2024-01-11T01:40:51;25.77;;;9.97;;
71610;SDS011;59459;51.172;6.682;2024-01-11T01:43:16;29.03;;;9.90;;
71610;SDS011;59459;51.172;6.682;2024-01-11T01:45:41;28.83;;;9.77;;
71610;SDS011;59459;51.172;6.682;2024-01-11T01:48:07;28.50;;;10.10;;
71610;SDS011;59459;51.172;6.682;2024-01-11T01:50:32;25.50;;;10.77;;
71610;SDS011;59459;51.172;6.682;2024-01-11T01:52:57;27.00;;;9.73;;
71610;SDS011;59459;51.172;6.682;2024-01-11T01:55:23;23.27;;;10.23;;
71610;SDS011;59459;51.172;6.682;2024-01-11T01:57:48;28.83;;;11.23;;
71610;SDS011;59459;51.172;6.682;2024-01-11T02:00:15;27.75;;;10.18;;
71610;SDS011;59459;51.172;6.682;2024-01-11T02:02:41;26.58;;;11.73;;
71610;SDS011;59459;51.172;6.682;2024-01-11T02:05:08;27.43;;;10.10;;
71610;SDS011;59459;51.172;6.682;2024-01-11T02:07:33;23.80;;;9.88;;
71610;SDS011;59459;51.172;6.682;2024-01-11T02:09:58;28.10;;;10.50;;
71610;SDS011;59459;51.172;6.682;2024-01-11T02:12:24;22.90;;;9.80;;
71610;SDS011;59459;51.172;6.682;2024-01-11T02:14:50;24.50;;;10.90;;
71610;SDS011;59459;51.172;6.682;2024-01-11T02:17:15;28.37;;;9.23;;
71610;SDS011;59459;51.172;6.682;2024-01-11T02:19:40;26.97;;;9.80;;
71610;SDS011;59459;51.172;6.682;2024-01-11T02:22:08;31.67;;;10.77;;
71610;SDS011;59459;51.172;6.682;2024-01-11T02:24:35;36.03;;;11.55;;
71610;SDS011;59459;51.172;6.682;2024-01-11T02:27:01;22.27;;;11.00;;
71610;SDS011;59459;51.172;6.682;2024-01-11T02:29:27;24.70;;;9.30;;
71610;SDS011;59459;51.172;6.682;2024-01-11T02:31:53;32.78;;;11.63;;
71610;SDS011;59459;51.172;6.682;2024-01-11T02:34:18;23.13;;;9.30;;
71610;SDS011;59459;51.172;6.682;2024-01-11T02:36:43;24.57;;;10.10;;
71610;SDS011;59459;51.172;6.682;2024-01-11T02:39:09;25.53;;;11.87;;
71610;SDS011;59459;51.172;6.682;2024-01-11T02:41:35;22.58;;;10.43;;
71610;SDS011;59459;51.172;6.682;2024-01-11T02:44:01;24.90;;;10.37;;
71610;SDS011;59459;51.172;6.682;2024-01-11T02:46:27;24.27;;;8.80;;
71610;SDS011;59459;51.172;6.682;2024-01-11T02:48:52;24.53;;;10.70;;
71610;SDS011;59459;51.172;6.682;2024-01-11T02:51:17;26.83;;;10.73;;
71610;SDS011;59459;51.172;6.682;2024-01-11T02:53:42;27.65;;;11.02;;
71610;SDS011;59459;51.172;6.682;2024-01-11T02:56:08;27.80;;;10.80;;
71610;SDS011;59459;51.172;6.682;2024-01-11T02:58:33;30.07;;;11.63;;
71610;SDS011;59459;51.172;6.682;2024-01-11T03:00:58;25.90;;;9.40;;
71610;SDS011;59459;51.172;6.682;2024-01-11T03:03:23;25.93;;;10.03;;
71610;SDS011;59459;51.172;6.682;2024-01-11T03:05:49;30.53;;;11.43;;
71610;SDS011;59459;51.172;6.682;2024-01-11T03:08:14;31.77;;;11.50;;
71610;SDS011;59459;51.172;6.682;2024-01-11T03:10:39;34.23;;;11.00;;
71610;SDS011;59459;51.172;6.682;2024-01-11T03:13:05;27.27;;;9.97;;
71610;SDS011;59459;51.172;6.682;2024-01-11T03:15:30;30.27;;;10.53;;
71610;SDS011;59459;51.172;6.682;2024-01-11T03:17:55;30.43;;;12.93;;
71610;SDS011;59459;51.172;6.682;2024-01-11T03:20:21;35.07;;;12.17;;
71610;SDS011;59459;51.172;6.682;2024-01-11T03:22:49;25.97;;;9.70;;
71610;SDS011;59459;51.172;6.682;2024-01-11T03:25:14;28.60;;;11.30;;
71610;SDS011;59459;51.172;6.682;2024-01-11T03:27:40;35.08;;;10.93;;
71610;SDS011;59459;51.172;6.682;2024-01-11T03:30:05;26.60;;;10.67;;
71610;SDS011;59459;51.172;6.682;2024-01-11T03:32:31;21.13;;;10.47;;
71610;SDS011;59459;51.172;6.682;2024-01-11T03:34:56;37.53;;;12.40;;
71610;SDS011;59459;51.172;6.682;2024-01-11T03:37:21;24.77;;;9.80;;
71610;SDS011;59459;51.172;6.682;2024-01-11T03:39:47;25.77;;;10.67;;
71610;SDS011;59459;51.172;6.682;2024-01-11T03:42:12;27.63;;;11.03;;
71610;SDS011;59459;51.172;6.682;2024-01-11T03:44:37;39.17;;;11.30;;
71610;SDS011;59459;51.172;6.682;2024-01-11T03:47:03;32.70;;;11.50;;
71610;SDS011;59459;51.172;6.682;2024-01-11T03:49:28;32.30;;;10.83;;
71610;SDS011;59459;51.172;6.682;2024-01-11T03:51:53;33.70;;;11.57;;
71610;SDS011;59459;51.172;6.682;2024-01-11T03:54:18;22.90;;;9.17;;
71610;SDS011;59459;51.172;6.682;2024-01-11T03:56:44;30.63;;;10.27;;
71610;SDS011;59459;51.172;6.682;2024-01-11T03:59:10;27.57;;;12.53;;
71610;SDS011;59459;51.172;6.682;2024-01-11T04:01:39;29.35;;;11.02;;
71610;SDS011;59459;51.172;6.682;2024-01-11T04:04:04;31.33;;;11.05;;
71610;SDS011;59459;51.172;6.682;2024-01-11T04:06:29;35.80;;;11.13;;
71610;SDS011;59459;51.172;6.682;2024-01-11T04:08:54;31.40;;;10.50;;
71610;SDS011;59459;51.172;6.682;2024-01-11T04:11:20;28.97;;;10.87;;
71610;SDS011;59459;51.172;6.682;2024-01-11T04:13:45;38.47;;;13.50;;
71610;SDS011;59459;51.172;6.682;2024-01-11T04:16:10;35.80;;;11.40;;
71610;SDS011;59459;51.172;6.682;2024-01-11T04:18:35;32.23;;;11.40;;
71610;SDS011;59459;51.172;6.682;2024-01-11T04:21:00;32.37;;;10.97;;
71610;SDS011;59459;51.172;6.682;2024-01-11T04:23:26;28.37;;;10.53;;
71610;SDS011;59459;51.172;6.682;2024-01-11T04:25:51;28.03;;;12.67;;
71610;SDS011;59459;51.172;6.682;2024-01-11T04:28:17;26.40;;;10.47;;
71610;SDS011;59459;51.172;6.682;2024-01-11T04:30:42;31.23;;;10.60;;
71610;SDS011;59459;51.172;6.682;2024-01-11T04:33:08;43.27;;;12.73;;
71610;SDS011;59459;51.172;6.682;2024-01-11T04:35:33;34.03;;;13.03;;
71610;SDS011;59459;51.172;6.682;2024-01-11T04:37:58;34.53;;;11.77;;
71610;SDS011;59459;51.172;6.682;2024-01-11T04:40:23;37.43;;;12.13;;
71610;SDS011;59459;51.172;6.682;2024-01-11T04:42:49;28.30;;;12.47;;
71610;SDS011;59459;51.172;6.682;2024-01-11T04:45:14;28.40;;;10.77;;
71610;SDS011;59459;51.172;6.682;2024-01-11T04:47:39;29.33;;;12.47;;
71610;SDS011;59459;51.172;6.682;2024-01-11T04:50:06;33.97;;;15.05;;
71610;SDS011;59459;51.172;6.682;2024-01-11T04:52:31;34.27;;;13.30;;
71610;SDS011;59459;51.172;6.682;2024-01-11T04:54:56;36.10;;;12.90;;
71610;SDS011;59459;51.172;6.682;2024-01-11T04:57:21;37.40;;;13.83;;
71610;SDS011;59459;51.172;6.682;2024-01-11T04:59:47;37.67;;;13.77;;
71610;SDS011;59459;51.172;6.682;2024-01-11T05:02:12;34.70;;;13.47;;
71610;SDS011;59459;51.172;6.682;2024-01-11T05:04:37;34.63;;;12.73;;
71610;SDS011;59459;51.172;6.682;2024-01-11T05:07:02;38.90;;;13.33;;
71610;SDS011;59459;51.172;6.682;2024-01-11T05:09:28;44.57;;;15.43;;
71610;SDS011;59459;51.172;6.682;2024-01-11T05:11:53;38.83;;;14.83;;
71610;SDS011;59459;51.172;6.682;2024-01-11T05:14:18;40.43;;;14.73;;
71610;SDS011;59459;51.172;6.682;2024-01-11T05:16:43;33.57;;;12.87;;
71610;SDS011;59459;51.172;6.682;2024-01-11T05:19:09;37.08;;;12.70;;
71610;SDS011;59459;51.172;6.682;2024-01-11T05:21:34;35.43;;;13.07;;
71610;SDS011;59459;51.172;6.682;2024-01-11T05:24:00;41.90;;;15.52;;
71610;SDS011;59459;51.172;6.682;2024-01-11T05:26:26;26.57;;;11.57;;
71610;SDS011;59459;51.172;6.682;2024-01-11T05:28:51;45.63;;;13.93;;
71610;SDS011;59459;51.172;6.682;2024-01-11T05:31:16;38.07;;;15.13;;
71610;SDS011;59459;51.172;6.682;2024-01-11T05:33:42;37.17;;;13.93;;
71610;SDS011;59459;51.172;6.682;2024-01-11T05:36:07;34.57;;;13.20;;
71610;SDS011;59459;51.172;6.682;2024-01-11T05:38:33;34.47;;;13.25;;
71610;SDS011;59459;51.172;6.682;2024-01-11T05:40:58;43.67;;;14.33;;
71610;SDS011;59459;51.172;6.682;2024-01-11T05:43:23;36.23;;;13.17;;
71610;SDS011;59459;51.172;6.682;2024-01-11T05:45:48;36.30;;;13.97;;
71610;SDS011;59459;51.172;6.682;2024-01-11T05:48:14;38.27;;;12.77;;
71610;SDS011;59459;51.172;6.682;2024-01-11T05:50:40;38.67;;;14.38;;
71610;SDS011;59459;51.172;6.682;2024-01-11T05:53:05;40.60;;;12.73;;
71610;SDS011;59459;51.172;6.682;2024-01-11T05:55:31;35.53;;;13.83;;
71610;SDS011;59459;51.172;6.682;2024-01-11T05:57:56;34.80;;;13.37;;
71610;SDS011;59459;51.172;6.682;2024-01-11T06:00:21;32.03;;;12.90;;
71610;SDS011;59459;51.172;6.682;2024-01-11T06:02:47;36.30;;;12.88;;
71610;SDS011;59459;51.172;6.682;2024-01-11T06:05:12;36.93;;;12.47;;
71610;SDS011;59459;51.172;6.682;2024-01-11T06:07:38;36.30;;;14.10;;
71610;SDS011;59459;51.172;6.682;2024-01-11T06:10:03;32.60;;;13.33;;
71610;SDS011;59459;51.172;6.682;2024-01-11T06:12:30;39.47;;;13.80;;
71610;SDS011;59459;51.172;6.682;2024-01-11T06:14:56;32.27;;;13.57;;
71610;SDS011;59459;51.172;6.682;2024-01-11T06:17:21;29.63;;;13.37;;
71610;SDS011;59459;51.172;6.682;2024-01-11T06:19:46;33.30;;;13.30;;
71610;SDS011;59459;51.172;6.682;2024-01-11T06:22:11;39.10;;;14.83;;
71610;SDS011;59459;51.172;6.682;2024-01-11T06:24:37;45.27;;;14.60;;
71610;SDS011;59459;51.172;6.682;2024-01-11T06:27:02;34.07;;;13.63;;
71610;SDS011;59459;51.172;6.682;2024-01-11T06:29:27;34.67;;;13.43;;
71610;SDS011;59459;51.172;6.682;2024-01-11T06:31:53;35.63;;;13.60;;
71610;SDS011;59459;51.172;6.682;2024-01-11T06:34:18;37.93;;;15.07;;
71610;SDS011;59459;51.172;6.682;2024-01-11T06:36:43;41.93;;;15.00;;
71610;SDS011;59459;51.172;6.682;2024-01-11T06:39:09;37.97;;;14.50;;
71610;SDS011;59459;51.172;6.682;2024-01-11T06:41:35;42.55;;;13.80;;
71610;SDS011;59459;51.172;6.682;2024-01-11T06:44:00;34.63;;;13.77;;
71610;SDS011;59459;51.172;6.682;2024-01-11T06:46:25;39.23;;;13.93;;
71610;SDS011;59459;51.172;6.682;2024-01-11T06:48:50;40.30;;;14.57;;
71610;SDS011;59459;51.172;6.682;2024-01-11T06:51:16;34.63;;;14.93;;
71610;SDS011;59459;51.172;6.682;2024-01-11T06:53:41;33.22;;;12.93;;
71610;SDS011;59459;51.172;6.682;2024-01-11T06:56:14;35.80;;;11.60;;
71610;SDS011;59459;51.172;6.682;2024-01-11T06:58:39;37.92;;;14.45;;
71610;SDS011;59459;51.172;6.682;2024-01-11T07:01:04;35.03;;;13.20;;
71610;SDS011;59459;51.172;6.682;2024-01-11T07:03:30;34.10;;;13.87;;
71610;SDS011;59459;51.172;6.682;2024-01-11T07:05:55;41.40;;;12.87;;
71610;SDS011;59459;51.172;6.682;2024-01-11T07:08:20;42.77;;;15.87;;
71610;SDS011;59459;51.172;6.682;2024-01-11T07:10:46;34.45;;;13.20;;
71610;SDS011;59459;51.172;6.682;2024-01-11T07:13:11;39.83;;;14.97;;
71610;SDS011;59459;51.172;6.682;2024-01-11T07:15:40;40.65;;;14.48;;
71610;SDS011;59459;51.172;6.682;2024-01-11T07:18:05;44.67;;;13.97;;
71610;SDS011;59459;51.172;6.682;2024-01-11T07:20:30;36.43;;;13.33;;
71610;SDS011;59459;51.172;6.682;2024-01-11T07:22:55;35.43;;;12.80;;
71610;SDS011;59459;51.172;6.682;2024-01-11T07:25:20;35.70;;;12.87;;
71610;SDS011;59459;51.172;6.682;2024-01-11T07:27:46;32.43;;;14.53;;
71610;SDS011;59459;51.172;6.682;2024-01-11T07:30:11;36.07;;;14.87;;
71610;SDS011;59459;51.172;6.682;2024-01-11T07:32:36;36.50;;;12.50;;
71610;SDS011;59459;51.172;6.682;2024-01-11T07:35:02;34.73;;;13.90;;
71610;SDS011;59459;51.172;6.682;2024-01-11T07:37:27;36.60;;;14.70;;
71610;SDS011;59459;51.172;6.682;2024-01-11T07:39:53;37.73;;;14.50;;
71610;SDS011;59459;51.172;6.682;2024-01-11T07:42:18;36.03;;;13.27;;
71610;SDS011;59459;51.172;6.682;2024-01-11T07:44:44;41.63;;;12.95;;
71610;SDS011;59459;51.172;6.682;2024-01-11T07:47:09;38.97;;;14.53;;
71610;SDS011;59459;51.172;6.682;2024-01-11T07:49:34;37.97;;;14.07;;
71610;SDS011;59459;51.172;6.682;2024-01-11T07:51:59;44.03;;;16.53;;
71610;SDS011;59459;51.172;6.682;2024-01-11T07:54:25;41.53;;;13.87;;
71610;SDS011;59459;51.172;6.682;2024-01-11T07:56:50;38.03;;;14.20;;
71610;SDS011;59459;51.172;6.682;2024-01-11T07:59:15;42.00;;;14.83;;
71610;SDS011;59459;51.172;6.682;2024-01-11T08:01:40;38.30;;;14.20;;
71610;SDS011;59459;51.172;6.682;2024-01-11T08:04:06;42.90;;;13.77;;
71610;SDS011;59459;51.172;6.682;2024-01-11T08:06:31;35.30;;;14.30;;
71610;SDS011;59459;51.172;6.682;2024-01-11T08:08:57;39.53;;;15.65;;
71610;SDS011;59459;51.172;6.682;2024-01-11T08:11:22;35.53;;;12.87;;
71610;SDS011;59459;51.172;6.682;2024-01-11T08:13:47;35.53;;;12.83;;
71610;SDS011;59459;51.172;6.682;2024-01-11T08:16:16;31.03;;;13.47;;
71610;SDS011;59459;51.172;6.682;2024-01-11T08:18:41;36.72;;;14.52;;
71610;SDS011;59459;51.172;6.682;2024-01-11T08:21:07;37.20;;;14.20;;
71610;SDS011;59459;51.172;6.682;2024-01-11T08:23:34;41.50;;;13.43;;
71610;SDS011;59459;51.172;6.682;2024-01-11T08:25:59;55.40;;;16.00;;
71610;SDS011;59459;51.172;6.682;2024-01-11T08:28:24;35.70;;;14.03;;
71610;SDS011;59459;51.172;6.682;2024-01-11T08:30:50;38.10;;;13.63;;
71610;SDS011;59459;51.172;6.682;2024-01-11T08:33:15;39.23;;;14.43;;
71610;SDS011;59459;51.172;6.682;2024-01-11T08:35:40;34.93;;;13.53;;
71610;SDS011;59459;51.172;6.682;2024-01-11T08:38:06;41.03;;;14.73;;
71610;SDS011;59459;51.172;6.682;2024-01-11T08:40:31;41.53;;;14.87;;
71610;SDS011;59459;51.172;6.682;2024-01-11T08:42:57;52.80;;;16.83;;
71610;SDS011;59459;51.172;6.682;2024-01-11T08:45:23;38.60;;;13.33;;
71610;SDS011;59459;51.172;6.682;2024-01-11T08:47:48;43.77;;;14.23;;
71610;SDS011;59459;51.172;6.682;2024-01-11T08:50:14;38.03;;;14.47;;
71610;SDS011;59459;51.172;6.682;2024-01-11T08:52:39;39.88;;;15.07;;
71610;SDS011;59459;51.172;6.682;2024-01-11T08:55:05;42.90;;;16.13;;
71610;SDS011;59459;51.172;6.682;2024-01-11T08:57:30;46.72;;;17.15;;
71610;SDS011;59459;51.172;6.682;2024-01-11T08:59:55;44.80;;;15.37;;
71610;SDS011;59459;51.172;6.682;2024-01-11T09:02:21;40.43;;;16.67;;
71610;SDS011;59459;51.172;6.682;2024-01-11T09:04:46;35.70;;;14.63;;
71610;SDS011;59459;51.172;6.682;2024-01-11T09:07:12;39.35;;;15.68;;
71610;SDS011;59459;51.172;6.682;2024-01-11T09:09:37;36.70;;;15.20;;
71610;SDS011;59459;51.172;6.682;2024-01-11T09:12:03;37.57;;;16.40;;
71610;SDS011;59459;51.172;6.682;2024-01-11T09:14:28;37.90;;;14.93;;
71610;SDS011;59459;51.172;6.682;2024-01-11T09:16:53;43.60;;;16.10;;
71610;SDS011;59459;51.172;6.682;2024-01-11T09:19:19;42.83;;;17.27;;
71610;SDS011;59459;51.172;6.682;2024-01-11T09:21:45;43.73;;;18.13;;
71610;SDS011;59459;51.172;6.682;2024-01-11T09:24:10;35.97;;;14.50;;
71610;SDS011;59459;51.172;6.682;2024-01-11T09:26:35;42.57;;;16.13;;
71610;SDS011;59459;51.172;6.682;2024-01-11T09:29:01;44.90;;;18.03;;
71610;SDS011;59459;51.172;6.682;2024-01-11T09:31:26;59.38;;;19.67;;
71610;SDS011;59459;51.172;6.682;2024-01-11T09:33:52;49.00;;;18.60;;
71610;SDS011;59459;51.172;6.682;2024-01-11T09:36:17;43.53;;;16.87;;
71610;SDS011;59459;51.172;6.682;2024-01-11T09:38:43;44.05;;;17.55;;
71610;SDS011;59459;51.172;6.682;2024-01-11T09:41:09;41.97;;;17.10;;
71610;SDS011;59459;51.172;6.682;2024-01-11T09:43:35;37.50;;;15.93;;
71610;SDS011;59459;51.172;6.682;2024-01-11T09:46:03;55.15;;;19.40;;
71610;SDS011;59459;51.172;6.682;2024-01-11T09:48:28;42.42;;;16.52;;
71610;SDS011;59459;51.172;6.682;2024-01-11T09:50:54;43.63;;;17.67;;
71610;SDS011;59459;51.172;6.682;2024-01-11T09:53:21;44.77;;;16.50;;
71610;SDS011;59459;51.172;6.682;2024-01-11T09:55:48;45.95;;;16.02;;
71610;SDS011;59459;51.172;6.682;2024-01-11T09:58:13;49.17;;;17.95;;
71610;SDS011;59459;51.172;6.682;2024-01-11T10:00:39;39.50;;;16.30;;
71610;SDS011;59459;51.172;6.682;2024-01-11T10:03:06;43.22;;;17.15;;
71610;SDS011;59459;51.172;6.682;2024-01-11T10:05:31;42.73;;;17.07;;
71610;SDS011;59459;51.172;6.682;2024-01-11T10:07:58;44.43;;;16.17;;
71610;SDS011;59459;51.172;6.682;2024-01-11T10:10:23;38.05;;;15.75;;
71610;SDS011;59459;51.172;6.682;2024-01-11T10:12:48;40.67;;;16.23;;
71610;SDS011;59459;51.172;6.682;2024-01-11T10:15:15;47.75;;;18.65;;
71610;SDS011;59459;51.172;6.682;2024-01-11T10:17:43;41.50;;;16.80;;
71610;SDS011;59459;51.172;6.682;2024-01-11T10:20:09;47.10;;;16.83;;
71610;SDS011;59459;51.172;6.682;2024-01-11T10:22:42;43.20;;;19.08;;
71610;SDS011;59459;51.172;6.682;2024-01-11T10:25:07;41.87;;;15.87;;
71610;SDS011;59459;51.172;6.682;2024-01-11T10:27:33;46.70;;;17.65;;
71610;SDS011;59459;51.172;6.682;2024-01-11T10:29:59;48.58;;;18.42;;
71610;SDS011;59459;51.172;6.682;2024-01-11T10:32:26;55.23;;;19.23;;
71610;SDS011;59459;51.172;6.682;2024-01-11T10:34:53;44.92;;;17.90;;
71610;SDS011;59459;51.172;6.682;2024-01-11T10:37:18;43.80;;;18.87;;
71610;SDS011;59459;51.172;6.682;2024-01-11T10:39:43;44.33;;;17.77;;
71610;SDS011;59459;51.172;6.682;2024-01-11T10:42:08;37.27;;;17.47;;
71610;SDS011;59459;51.172;6.682;2024-01-11T10:44:34;46.73;;;18.30;;
71610;SDS011;59459;51.172;6.682;2024-01-11T10:47:01;48.13;;;19.45;;
71610;SDS011;59459;51.172;6.682;2024-01-11T10:49:27;43.65;;;18.90;;
71610;SDS011;59459;51.172;6.682;2024-01-11T10:51:53;41.90;;;18.07;;
71610;SDS011;59459;51.172;6.682;2024-01-11T10:54:19;50.63;;;20.23;;
71610;SDS011;59459;51.172;6.682;2024-01-11T10:56:45;36.92;;;17.38;;
71610;SDS011;59459;51.172;6.682;2024-01-11T10:59:11;48.07;;;18.70;;
71610;SDS011;59459;51.172;6.682;2024-01-11T11:01:37;43.80;;;19.33;;
71610;SDS011;59459;51.172;6.682;2024-01-11T11:04:04;43.53;;;19.05;;
71610;SDS011;59459;51.172;6.682;2024-01-11T11:06:29;49.17;;;19.63;;
71610;SDS011;59459;51.172;6.682;2024-01-11T11:08:56;49.53;;;20.20;;
71610;SDS011;59459;51.172;6.682;2024-01-11T11:11:22;45.30;;;20.10;;
71610;SDS011;59459;51.172;6.682;2024-01-11T11:13:47;45.37;;;19.90;;
71610;SDS011;59459;51.172;6.682;2024-01-11T11:16:15;41.53;;;20.25;;
71610;SDS011;59459;51.172;6.682;2024-01-11T11:18:41;51.43;;;21.23;;
71610;SDS011;59459;51.172;6.682;2024-01-11T11:21:08;47.80;;;20.00;;
71610;SDS011;59459;51.172;6.682;2024-01-11T11:23:34;45.05;;;18.63;;
71610;SDS011;59459;51.172;6.682;2024-01-11T11:25:59;40.87;;;19.20;;
71610;SDS011;59459;51.172;6.682;2024-01-11T11:28:24;49.70;;;21.17;;
71610;SDS011;59459;51.172;6.682;2024-01-11T11:30:52;47.85;;;19.55;;
71610;SDS011;59459;51.172;6.682;2024-01-11T11:33:21;46.63;;;18.10;;
71610;SDS011;59459;51.172;6.682;2024-01-11T11:35:47;45.10;;;20.10;;
71610;SDS011;59459;51.172;6.682;2024-01-11T11:38:19;50.63;;;20.80;;
71610;SDS011;59459;51.172;6.682;2024-01-11T11:40:46;38.75;;;18.17;;
71610;SDS011;59459;51.172;6.682;2024-01-11T11:43:11;42.75;;;19.95;;
71610;SDS011;59459;51.172;6.682;2024-01-11T11:45:36;44.57;;;20.30;;
71610;SDS011;59459;51.172;6.682;2024-01-11T11:48:02;39.13;;;18.37;;
71610;SDS011;59459;51.172;6.682;2024-01-11T11:50:47;41.97;;;19.02;;
71610;SDS011;59459;51.172;6.682;2024-01-11T11:53:12;38.07;;;17.63;;
71610;SDS011;59459;51.172;6.682;2024-01-11T11:55:37;46.57;;;18.47;;
71610;SDS011;59459;51.172;6.682;2024-01-11T11:58:03;42.90;;;18.33;;
71610;SDS011;59459;51.172;6.682;2024-01-11T12:00:29;42.28;;;18.48;;
71610;SDS011;59459;51.172;6.682;2024-01-11T12:02:56;37.63;;;17.95;;
71610;SDS011;59459;51.172;6.682;2024-01-11T12:05:21;41.13;;;19.10;;
71610;SDS011;59459;51.172;6.682;2024-01-11T12:07:47;41.35;;;19.30;;
71610;SDS011;59459;51.172;6.682;2024-01-11T12:10:13;40.23;;;16.80;;
71610;SDS011;59459;51.172;6.682;2024-01-11T12:12:39;47.43;;;19.83;;
71610;SDS011;59459;51.172;6.682;2024-01-11T12:15:04;41.92;;;17.42;;
71610;SDS011;59459;51.172;6.682;2024-01-11T12:17:30;43.50;;;18.50;;
71610;SDS011;59459;51.172;6.682;2024-01-11T12:19:55;40.30;;;17.80;;
71610;SDS011;59459;51.172;6.682;2024-01-11T12:22:20;43.40;;;18.70;;
71610;SDS011;59459;51.172;6.682;2024-01-11T12:24:45;43.03;;;18.10;;
71610;SDS011;59459;51.172;6.682;2024-01-11T12:27:11;38.70;;;18.80;;
71610;SDS011;59459;51.172;6.682;2024-01-11T12:29:38;41.10;;;19.10;;
71610;SDS011;59459;51.172;6.682;2024-01-11T12:32:03;39.15;;;18.67;;
71610;SDS011;59459;51.172;6.682;2024-01-11T12:34:28;40.10;;;17.60;;
71610;SDS011;59459;51.172;6.682;2024-01-11T12:36:54;42.17;;;18.35;;
71610;SDS011;59459;51.172;6.682;2024-01-11T12:39:20;36.65;;;16.50;;
71610;SDS011;59459;51.172;6.682;2024-01-11T12:41:47;39.60;;;18.27;;
71610;SDS011;59459;51.172;6.682;2024-01-11T12:44:13;39.42;;;17.90;;
71610;SDS011;59459;51.172;6.682;2024-01-11T12:46:39;39.23;;;17.07;;
71610;SDS011;59459;51.172;6.682;2024-01-11T12:49:04;37.65;;;17.77;;
71610;SDS011;59459;51.172;6.682;2024-01-11T12:51:29;42.63;;;19.37;;
71610;SDS011;59459;51.172;6.682;2024-01-11T12:53:54;42.13;;;18.37;;
71610;SDS011;59459;51.172;6.682;2024-01-11T12:56:22;41.97;;;17.27;;
71610;SDS011;59459;51.172;6.682;2024-01-11T12:58:49;39.17;;;18.42;;
71610;SDS011;59459;51.172;6.682;2024-01-11T13:01:14;41.47;;;18.33;;
71610;SDS011;59459;51.172;6.682;2024-01-11T13:03:43;38.27;;;16.97;;
71610;SDS011;59459;51.172;6.682;2024-01-11T13:06:08;36.53;;;16.93;;
71610;SDS011;59459;51.172;6.682;2024-01-11T13:08:36;40.13;;;17.92;;
71610;SDS011;59459;51.172;6.682;2024-01-11T13:11:02;37.25;;;17.38;;
71610;SDS011;59459;51.172;6.682;2024-01-11T13:13:32;38.30;;;18.08;;
71610;SDS011;59459;51.172;6.682;2024-01-11T13:15:57;41.37;;;16.93;;
71610;SDS011;59459;51.172;6.682;2024-01-11T13:18:23;39.63;;;17.55;;
71610;SDS011;59459;51.172;6.682;2024-01-11T13:20:48;37.33;;;17.67;;
71610;SDS011;59459;51.172;6.682;2024-01-11T13:23:14;42.67;;;17.90;;
71610;SDS011;59459;51.172;6.682;2024-01-11T13:25:40;39.00;;;18.63;;
71610;SDS011;59459;51.172;6.682;2024-01-11T13:28:06;39.38;;;17.90;;
71610;SDS011;59459;51.172;6.682;2024-01-11T13:30:31;38.87;;;17.97;;
71610;SDS011;59459;51.172;6.682;2024-01-11T13:32:56;41.87;;;17.73;;
71610;SDS011;59459;51.172;6.682;2024-01-11T13:35:22;37.40;;;16.57;;
71610;SDS011;59459;51.172;6.682;2024-01-11T13:37:47;41.13;;;18.90;;
71610;SDS011;59459;51.172;6.682;2024-01-11T13:40:12;40.57;;;16.10;;
71610;SDS011;59459;51.172;6.682;2024-01-11T13:42:39;36.17;;;16.15;;
71610;SDS011;59459;51.172;6.682;2024-01-11T13:45:04;32.83;;;16.37;;
71610;SDS011;59459;51.172;6.682;2024-01-11T13:47:31;41.13;;;16.95;;
71610;SDS011;59459;51.172;6.682;2024-01-11T13:49:56;36.43;;;17.57;;
71610;SDS011;59459;51.172;6.682;2024-01-11T13:52:21;42.27;;;18.67;;
71610;SDS011;59459;51.172;6.682;2024-01-11T13:54:46;38.87;;;15.87;;
71610;SDS011;59459;51.172;6.682;2024-01-11T13:57:14;36.53;;;17.17;;
71610;SDS011;59459;51.172;6.682;2024-01-11T13:59:40;37.30;;;15.95;;
71610;SDS011;59459;51.172;6.682;2024-01-11T14:02:05;39.13;;;16.57;;
71610;SDS011;59459;51.172;6.682;2024-01-11T14:04:30;36.67;;;15.03;;
71610;SDS011;59459;51.172;6.682;2024-01-11T14:06:55;35.83;;;16.07;;
71610;SDS011;59459;51.172;6.682;2024-01-11T14:09:21;39.23;;;16.00;;
71610;SDS011;59459;51.172;6.682;2024-01-11T14:11:47;34.75;;;14.63;;
71610;SDS011;59459;51.172;6.682;2024-01-11T14:14:13;33.97;;;16.43;;